createdAt,value
2022-12-16T00:01:14.864Z,35.47
2022-12-16T00:03:49.296Z,49.67
2022-12-16T00:06:22.419Z,50.63
2022-12-16T00:08:53.667Z,40.17
2022-12-16T00:11:23.881Z,47.53
2022-12-16T00:13:55.241Z,47.37
2022-12-16T00:16:24.591Z,41.60
2022-12-16T00:18:54.842Z,47.83
2022-12-16T00:21:28.809Z,41.17
2022-12-16T00:23:58.726Z,34.77
2022-12-16T00:26:27.591Z,36.63
2022-12-16T00:28:56.495Z,32.77
2022-12-16T00:31:25.433Z,32.23
2022-12-16T00:34:00.224Z,40.80
2022-12-16T00:36:30.814Z,44.67
2022-12-16T00:38:59.966Z,48.47
2022-12-16T00:41:30.109Z,32.67
2022-12-16T00:43:58.930Z,33.90
2022-12-16T00:46:28.227Z,36.40
2022-12-16T00:48:59.208Z,47.03
2022-12-16T00:51:28.255Z,35.60
2022-12-16T00:53:57.609Z,31.03
2022-12-16T00:56:28.568Z,45.80
2022-12-16T00:58:58.598Z,46.67
2022-12-16T01:01:28.672Z,53.20
2022-12-16T01:03:59.387Z,40.17
2022-12-16T01:06:28.632Z,40.30
2022-12-16T01:08:58.173Z,46.77
2022-12-16T01:11:27.224Z,39.13
2022-12-16T01:14:09.842Z,34.53
2022-12-16T01:16:40.543Z,38.50
2022-12-16T01:19:11.351Z,45.90
2022-12-16T01:21:40.409Z,53.20
2022-12-16T01:24:10.957Z,43.87
2022-12-16T01:26:40.424Z,30.40
2022-12-16T01:29:10.145Z,49.57
2022-12-16T01:31:38.997Z,53.43
2022-12-16T01:34:11.511Z,33.10
2022-12-16T01:36:41.950Z,46.07
2022-12-16T01:39:11.208Z,48.50
2022-12-16T01:41:40.175Z,54.97
2022-12-16T01:44:16.724Z,45.67
2022-12-16T01:46:54.901Z,50.03
2022-12-16T01:49:28.533Z,44.10
2022-12-16T01:52:04.130Z,47.17
2022-12-16T01:54:38.250Z,41.07
2022-12-16T01:57:10.744Z,41.30
2022-12-16T01:59:45.853Z,39.87
2022-12-16T02:02:16.129Z,45.23
2022-12-16T02:05:07.615Z,44.77
2022-12-16T02:07:38.542Z,40.27
2022-12-16T02:10:08.652Z,47.50
2022-12-16T02:12:47.450Z,47.40
2022-12-16T02:15:28.354Z,52.27
2022-12-16T02:18:04.782Z,56.30
2022-12-16T02:21:01.307Z,50.23
2022-12-16T02:23:56.852Z,47.33
2022-12-16T02:26:50.680Z,45.90
2022-12-16T02:29:38.162Z,50.93
2022-12-16T02:32:19.441Z,36.50
2022-12-16T02:34:58.650Z,46.40
2022-12-16T02:37:39.224Z,49.07
2022-12-16T02:40:18.250Z,39.10
2022-12-16T02:42:51.611Z,49.70
2022-12-16T02:45:26.470Z,54.33
2022-12-16T02:47:57.178Z,33.40
2022-12-16T02:50:31.977Z,45.13
2022-12-16T02:53:02.955Z,37.40
2022-12-16T02:55:41.202Z,51.70
2022-12-16T02:58:21.064Z,46.73
2022-12-16T03:00:57.469Z,58.30
2022-12-16T03:03:35.678Z,52.30
2022-12-16T03:06:06.709Z,53.50
2022-12-16T03:08:39.641Z,52.20
2022-12-16T03:11:09.631Z,51.47
2022-12-16T03:13:42.985Z,46.30
2022-12-16T03:16:15.016Z,47.77
2022-12-16T03:18:50.522Z,62.13
2022-12-16T03:21:24.435Z,42.30
2022-12-16T03:23:56.091Z,50.73
2022-12-16T03:26:30.410Z,48.33
2022-12-16T03:29:05.404Z,37.30
2022-12-16T03:31:40.098Z,63.43
2022-12-16T03:34:16.930Z,57.77
2022-12-16T03:36:50.929Z,54.87
2022-12-16T03:39:23.425Z,53.30
2022-12-16T03:41:55.105Z,55.50
2022-12-16T03:44:26.670Z,42.80
2022-12-16T03:46:56.214Z,49.30
2022-12-16T03:49:27.138Z,57.40
2022-12-16T03:51:56.753Z,63.27
2022-12-16T03:54:27.941Z,49.30
2022-12-16T03:56:57.882Z,49.17
2022-12-16T03:59:35.459Z,49.77
2022-12-16T04:02:05.018Z,52.97
2022-12-16T04:04:35.771Z,55.37
2022-12-16T04:07:25.313Z,41.53
2022-12-16T04:09:54.722Z,47.33
2022-12-16T04:12:40.937Z,51.77
2022-12-16T04:15:28.434Z,51.03
2022-12-16T04:18:14.595Z,49.60
2022-12-16T04:21:06.357Z,62.87
2022-12-16T04:23:54.632Z,54.37
2022-12-16T04:26:24.371Z,55.40
2022-12-16T04:28:54.090Z,50.93
2022-12-16T04:31:22.973Z,53.53
2022-12-16T04:34:09.386Z,51.47
2022-12-16T04:36:56.599Z,57.37
2022-12-16T04:39:42.779Z,52.80
2022-12-16T04:42:28.880Z,40.83
2022-12-16T04:45:14.926Z,60.83
2022-12-16T04:48:01.088Z,49.67
2022-12-16T04:50:47.128Z,43.30
2022-12-16T04:53:35.057Z,43.47
2022-12-16T04:56:21.854Z,50.80
2022-12-16T04:59:08.041Z,61.80
2022-12-16T05:01:54.334Z,49.67
2022-12-16T05:04:40.551Z,52.60
2022-12-16T05:07:26.871Z,39.57
2022-12-16T05:10:14.797Z,43.00
2022-12-16T05:13:01.200Z,46.80
2022-12-16T05:15:47.439Z,55.50
2022-12-16T05:18:35.110Z,33.83
2022-12-16T05:21:22.081Z,44.93
2022-12-16T05:24:08.517Z,42.77
2022-12-16T05:26:56.306Z,42.57
2022-12-16T05:29:42.363Z,40.97
2022-12-16T05:32:28.643Z,41.20
2022-12-16T05:35:16.752Z,41.87
2022-12-16T05:38:05.844Z,45.70
2022-12-16T05:40:52.083Z,45.33
2022-12-16T05:43:48.599Z,27.07
2022-12-16T05:46:34.845Z,40.53
2022-12-16T05:49:24.140Z,40.90
2022-12-16T05:52:10.440Z,36.80
2022-12-16T05:54:56.627Z,43.60
2022-12-16T05:57:42.668Z,33.47
2022-12-16T06:00:31.756Z,43.00
2022-12-16T06:03:17.739Z,29.73
2022-12-16T06:06:04.666Z,38.83
2022-12-16T06:08:50.572Z,42.20
2022-12-16T06:11:36.591Z,34.87
2022-12-16T06:14:23.195Z,31.17
2022-12-16T06:17:13.093Z,32.27
2022-12-16T06:19:59.594Z,30.63
2022-12-16T06:22:46.116Z,30.20
2022-12-16T06:25:32.396Z,34.53
2022-12-16T06:28:18.278Z,28.97
2022-12-16T06:31:04.821Z,33.50
2022-12-16T06:33:54.975Z,26.47
2022-12-16T06:36:41.630Z,26.33
2022-12-16T06:39:27.925Z,26.90
2022-12-16T06:42:16.178Z,27.73
2022-12-16T06:45:02.140Z,32.00
2022-12-16T06:47:48.427Z,25.43
2022-12-16T06:50:37.910Z,38.50
2022-12-16T06:53:41.607Z,29.67
2022-12-16T06:56:29.455Z,24.20
2022-12-16T06:59:15.459Z,28.87
2022-12-16T07:02:01.807Z,35.77
2022-12-16T07:04:48.123Z,28.90
2022-12-16T07:07:36.403Z,25.77
2022-12-16T07:10:38.188Z,30.17
2022-12-16T07:13:24.392Z,36.17
2022-12-16T07:16:12.089Z,21.67
2022-12-16T07:18:58.226Z,24.97
2022-12-16T07:21:44.996Z,25.80
2022-12-16T07:24:33.020Z,29.77
2022-12-16T07:27:19.043Z,21.23
2022-12-16T07:30:05.287Z,20.17
2022-12-16T07:32:51.466Z,25.83
2022-12-16T07:35:37.886Z,27.70
2022-12-16T07:38:24.669Z,18.87
2022-12-16T07:41:12.496Z,22.57
2022-12-16T07:43:58.874Z,23.73
2022-12-16T07:46:44.795Z,21.50
2022-12-16T07:49:31.794Z,26.37
2022-12-16T07:52:18.460Z,26.50
2022-12-16T07:55:04.355Z,24.20
2022-12-16T07:57:52.170Z,27.60
2022-12-16T08:00:39.076Z,28.53
2022-12-16T08:03:25.343Z,27.00
2022-12-16T08:06:11.356Z,22.70
2022-12-16T08:08:57.437Z,26.90
2022-12-16T08:11:43.382Z,25.37
2022-12-16T08:14:31.690Z,25.50
2022-12-16T08:17:18.689Z,30.87
2022-12-16T08:20:06.815Z,34.13
2022-12-16T08:22:53.332Z,28.07
2022-12-16T08:25:41.965Z,18.83
2022-12-16T08:28:28.449Z,31.53
2022-12-16T08:31:16.346Z,25.90
2022-12-16T08:34:02.713Z,22.33
2022-12-16T08:36:49.338Z,17.67
2022-12-16T08:39:35.952Z,18.17
2022-12-16T08:42:22.582Z,21.37
2022-12-16T08:45:09.049Z,20.13
2022-12-16T08:47:56.712Z,16.07
2022-12-16T08:50:43.634Z,13.97
2022-12-16T08:53:29.971Z,20.33
2022-12-16T08:56:16.260Z,22.13
2022-12-16T08:59:02.798Z,21.90
2022-12-16T09:01:49.163Z,21.20
2022-12-16T09:04:36.903Z,21.73
2022-12-16T09:07:22.879Z,21.67
2022-12-16T09:10:09.165Z,29.80
2022-12-16T09:12:55.108Z,29.30
2022-12-16T09:15:42.479Z,27.07
2022-12-16T09:18:29.840Z,24.43
2022-12-16T09:21:30.292Z,20.57
2022-12-16T09:24:19.340Z,20.77
2022-12-16T09:27:05.485Z,21.63
2022-12-16T09:29:51.944Z,27.57
2022-12-16T09:32:38.619Z,20.00
2022-12-16T09:35:25.411Z,24.47
2022-12-16T09:38:15.431Z,19.93
2022-12-16T09:41:01.892Z,25.17
2022-12-16T09:44:08.792Z,24.83
2022-12-16T09:47:08.631Z,29.90
2022-12-16T09:50:04.145Z,24.57
2022-12-16T09:52:55.715Z,30.47
2022-12-16T09:55:48.793Z,24.50
2022-12-16T09:58:35.886Z,29.43
2022-12-16T10:01:22.076Z,19.10
2022-12-16T10:04:08.270Z,40.10
2022-12-16T10:07:01.606Z,30.30
2022-12-16T10:09:54.239Z,34.50
2022-12-16T10:12:50.875Z,30.40
2022-12-16T10:15:52.685Z,23.07
2022-12-16T10:18:48.490Z,30.87
2022-12-16T10:21:39.577Z,33.47
2022-12-16T10:24:47.933Z,31.67
2022-12-16T10:27:35.672Z,25.20
2022-12-16T10:30:32.218Z,27.47
2022-12-16T10:33:19.218Z,30.70
2022-12-16T10:36:08.527Z,34.30
2022-12-16T10:39:01.256Z,30.77
2022-12-16T10:41:51.826Z,24.97
2022-12-16T10:44:42.709Z,31.97
2022-12-16T10:47:30.969Z,31.83
2022-12-16T10:50:18.109Z,38.27
2022-12-16T10:53:12.588Z,31.10
2022-12-16T10:56:09.900Z,40.33
2022-12-16T10:59:05.389Z,39.60
2022-12-16T11:01:52.109Z,39.83
2022-12-16T11:04:51.882Z,42.70
2022-12-16T11:07:50.282Z,32.63
2022-12-16T11:10:50.669Z,36.37
2022-12-16T11:13:51.954Z,39.33
2022-12-16T11:16:40.726Z,41.67
2022-12-16T11:19:38.441Z,35.23
2022-12-16T11:22:32.574Z,37.33
2022-12-16T11:25:32.684Z,38.77
2022-12-16T11:28:23.360Z,48.83
2022-12-16T11:31:12.591Z,38.53
2022-12-16T11:33:59.691Z,41.37
2022-12-16T11:36:46.514Z,30.20
2022-12-16T11:39:36.744Z,32.87
2022-12-16T11:42:26.570Z,39.87
2022-12-16T11:45:15.179Z,42.43
2022-12-16T11:48:09.851Z,43.20
2022-12-16T11:51:01.187Z,39.47
2022-12-16T11:53:58.442Z,33.20
2022-12-16T11:56:51.896Z,35.17
2022-12-16T11:59:48.787Z,40.63
2022-12-16T12:02:45.320Z,49.27
2022-12-16T12:05:32.410Z,47.37
2022-12-16T12:08:28.689Z,46.57
2022-12-16T12:11:23.709Z,61.97
2022-12-16T12:14:29.763Z,62.17
2022-12-16T12:17:26.506Z,45.27
2022-12-16T12:20:37.521Z,48.57
2022-12-16T12:23:29.118Z,53.33
2022-12-16T12:26:30.049Z,47.13
2022-12-16T12:29:26.819Z,54.37
2022-12-16T12:32:21.964Z,44.07
2022-12-16T12:35:15.975Z,60.40
2022-12-16T12:38:11.271Z,52.40
2022-12-16T12:41:07.145Z,49.57
2022-12-16T12:44:03.750Z,51.87
2022-12-16T12:47:01.239Z,55.37
2022-12-16T12:49:56.624Z,40.53
2022-12-16T12:53:06.533Z,60.43
2022-12-16T12:56:00.246Z,54.50
2022-12-16T12:58:51.456Z,49.30
2022-12-16T13:01:41.542Z,61.30
2022-12-16T13:04:36.605Z,60.90
2022-12-16T13:07:24.008Z,48.30
2022-12-16T13:10:36.996Z,57.90
2022-12-16T13:13:50.092Z,54.17
2022-12-16T13:17:25.812Z,63.90
2022-12-16T13:20:15.720Z,52.27
2022-12-16T13:23:06.300Z,62.43
2022-12-16T13:25:57.476Z,55.60
2022-12-16T13:28:46.757Z,49.07
2022-12-16T13:31:43.136Z,55.17
2022-12-16T13:34:46.244Z,65.10
2022-12-16T13:37:42.620Z,59.87
2022-12-16T13:40:38.725Z,54.00
2022-12-16T13:44:00.784Z,55.23
2022-12-16T13:47:03.044Z,54.00
2022-12-16T13:50:07.764Z,66.43
2022-12-16T13:53:07.700Z,64.07
2022-12-16T13:55:58.509Z,67.40
2022-12-16T13:58:56.934Z,54.27
2022-12-16T14:01:48.720Z,59.63
2022-12-16T14:04:44.307Z,46.50
2022-12-16T14:07:39.272Z,64.97
2022-12-16T14:10:41.632Z,70.07
2022-12-16T14:13:36.733Z,61.43
2022-12-16T14:16:30.789Z,58.30
2022-12-16T14:19:30.097Z,60.23
2022-12-16T14:22:32.866Z,68.60
2022-12-16T14:25:28.012Z,38.40
2022-12-16T14:28:16.356Z,69.93
2022-12-16T14:31:03.203Z,73.63
2022-12-16T14:33:49.667Z,63.07
2022-12-16T14:36:41.733Z,61.33
2022-12-16T14:39:39.779Z,61.47
2022-12-16T14:42:39.310Z,68.17
2022-12-16T14:45:47.259Z,63.83
2022-12-16T14:48:49.591Z,43.53
2022-12-16T14:51:48.896Z,60.83
2022-12-16T14:54:40.990Z,64.00
2022-12-16T14:57:34.990Z,45.30
2022-12-16T15:00:32.993Z,73.13
2022-12-16T15:03:24.607Z,72.17
2022-12-16T15:06:12.035Z,60.63
2022-12-16T15:09:05.714Z,69.10
2022-12-16T15:11:57.718Z,60.03
2022-12-16T15:14:49.441Z,64.20
2022-12-16T15:17:40.763Z,71.17
2022-12-16T15:20:38.027Z,50.20
2022-12-16T15:23:40.042Z,56.33
2022-12-16T15:26:27.168Z,55.63
2022-12-16T15:29:18.348Z,74.90
2022-12-16T15:32:08.319Z,59.30
2022-12-16T15:35:05.383Z,70.97
2022-12-16T15:38:02.161Z,76.13
2022-12-16T15:40:52.319Z,71.07
2022-12-16T15:43:48.312Z,82.27
2022-12-16T15:46:41.878Z,66.33
2022-12-16T15:49:38.445Z,59.03
2022-12-16T15:52:51.053Z,78.10
2022-12-16T15:55:53.018Z,50.27
2022-12-16T15:58:43.688Z,73.30
2022-12-16T16:01:32.393Z,48.93
2022-12-16T16:04:20.085Z,62.90
2022-12-16T16:07:08.543Z,67.77
2022-12-16T16:09:57.510Z,68.97
2022-12-16T16:12:45.015Z,70.93
2022-12-16T16:15:33.608Z,76.17
2022-12-16T16:18:23.028Z,67.20
2022-12-16T16:21:10.693Z,57.80
2022-12-16T16:23:57.301Z,57.23
2022-12-16T16:26:46.513Z,46.67
2022-12-16T16:29:33.253Z,60.80
2022-12-16T16:32:20.990Z,65.27
2022-12-16T16:35:07.263Z,61.70
2022-12-16T16:37:54.852Z,79.67
2022-12-16T16:40:49.423Z,52.57
2022-12-16T16:43:36.242Z,66.73
2022-12-16T16:46:32.011Z,76.83
2022-12-16T16:49:19.219Z,46.80
2022-12-16T16:52:05.164Z,78.70
2022-12-16T16:54:52.998Z,49.90
2022-12-16T16:57:38.932Z,71.70
2022-12-16T17:00:26.504Z,64.00
2022-12-16T17:03:12.693Z,79.17
2022-12-16T17:05:59.361Z,81.27
2022-12-16T17:09:00.355Z,75.53
2022-12-16T17:11:48.639Z,75.13
2022-12-16T17:14:39.367Z,92.37
2022-12-16T17:17:26.488Z,76.63
2022-12-16T17:20:12.802Z,88.40
2022-12-16T17:22:58.997Z,78.07
2022-12-16T17:25:45.205Z,70.80
2022-12-16T17:28:32.945Z,89.03
2022-12-16T17:31:19.137Z,82.63
2022-12-16T17:34:05.212Z,64.00
2022-12-16T17:36:51.343Z,76.07
2022-12-16T17:39:37.151Z,70.30
2022-12-16T17:42:23.680Z,56.37
2022-12-16T17:45:11.012Z,74.17
2022-12-16T17:47:57.340Z,77.17
2022-12-16T17:50:43.309Z,85.30
2022-12-16T17:53:29.403Z,79.70
2022-12-16T17:56:32.698Z,82.37
2022-12-16T17:59:19.694Z,117.53
2022-12-16T18:02:07.428Z,90.17
2022-12-16T18:04:53.644Z,89.40
2022-12-16T18:07:39.895Z,77.93
2022-12-16T18:10:28.109Z,90.00
2022-12-16T18:13:14.531Z,102.37
2022-12-16T18:16:00.998Z,97.83
2022-12-16T18:18:49.122Z,92.33
2022-12-16T18:21:35.063Z,126.10
2022-12-16T18:24:24.959Z,94.33
2022-12-16T18:27:14.814Z,104.00
2022-12-16T18:30:00.997Z,83.10
2022-12-16T18:32:49.090Z,99.93
2022-12-16T18:35:37.363Z,73.13
2022-12-16T18:38:24.397Z,82.53
2022-12-16T18:41:10.510Z,112.63
2022-12-16T18:46:56.446Z,86.43
2022-12-16T18:49:46.216Z,80.57
2022-12-16T18:52:33.833Z,116.87
2022-12-16T18:55:20.449Z,104.33
2022-12-16T18:58:21.098Z,133.70
2022-12-16T19:01:20.183Z,102.20
2022-12-16T19:04:06.794Z,67.70
2022-12-16T19:06:53.183Z,68.07
2022-12-16T19:09:53.497Z,82.80
2022-12-16T19:12:40.522Z,92.67
2022-12-16T19:15:30.076Z,109.93
2022-12-16T19:18:16.074Z,91.50
2022-12-16T19:21:03.605Z,114.20
2022-12-16T19:23:49.716Z,102.00
2022-12-16T19:26:37.402Z,89.50
2022-12-16T19:29:23.397Z,69.53
2022-12-16T19:32:09.686Z,47.70
2022-12-16T19:34:56.915Z,82.57
2022-12-16T19:37:43.302Z,91.30
2022-12-16T19:40:30.178Z,94.00
2022-12-16T19:43:17.853Z,85.70
2022-12-16T19:46:12.009Z,80.70
2022-12-16T19:48:59.127Z,78.13
2022-12-16T19:51:45.547Z,80.13
2022-12-16T19:54:31.776Z,69.97
2022-12-16T19:57:17.864Z,49.67
2022-12-16T20:00:05.956Z,69.67
2022-12-16T20:02:52.294Z,39.50
2022-12-16T20:05:39.615Z,47.13
2022-12-16T20:08:25.820Z,41.13
2022-12-16T20:11:11.652Z,42.73
2022-12-16T20:13:57.987Z,48.37
2022-12-16T20:16:46.285Z,51.73
2022-12-16T20:19:32.387Z,48.83
2022-12-16T20:22:18.658Z,54.87
2022-12-16T20:25:05.019Z,43.67
2022-12-16T20:27:50.876Z,46.17
2022-12-16T20:30:38.611Z,51.77
2022-12-16T20:33:31.276Z,42.03
2022-12-16T20:36:18.291Z,43.30
2022-12-16T20:39:06.076Z,52.00
2022-12-16T20:41:56.268Z,48.20
2022-12-16T20:44:42.936Z,45.67
2022-12-16T20:47:29.593Z,49.03
2022-12-16T20:50:17.830Z,45.10
2022-12-16T20:53:09.610Z,49.77
2022-12-16T20:55:56.201Z,36.67
2022-12-16T20:58:42.610Z,41.37
2022-12-16T21:01:29.116Z,44.93
2022-12-16T21:04:16.112Z,42.10
2022-12-16T21:07:03.662Z,41.50
2022-12-16T21:09:51.782Z,39.50
2022-12-16T21:12:38.325Z,46.67
2022-12-16T21:15:26.942Z,39.87
2022-12-16T21:18:12.955Z,47.27
2022-12-16T21:20:59.347Z,41.60
2022-12-16T21:23:47.389Z,40.53
2022-12-16T21:26:35.529Z,46.73
2022-12-16T21:29:21.723Z,45.40
2022-12-16T21:32:12.802Z,45.33
2022-12-16T21:34:59.266Z,36.30
2022-12-16T21:37:45.845Z,37.20
2022-12-16T21:40:34.092Z,47.80
2022-12-16T21:43:20.573Z,32.77
2022-12-16T21:46:11.126Z,40.37
2022-12-16T21:48:57.699Z,43.20
2022-12-16T21:51:48.072Z,42.47
2022-12-16T21:54:34.302Z,40.57
2022-12-16T21:57:22.297Z,38.00
2022-12-16T22:00:08.899Z,44.43
2022-12-16T22:02:56.327Z,35.63
2022-12-16T22:05:44.306Z,40.93
2022-12-16T22:08:31.221Z,39.37
2022-12-16T22:11:23.619Z,37.70
2022-12-16T22:14:11.152Z,33.33
2022-12-16T22:16:57.285Z,38.27
2022-12-16T22:19:44.044Z,34.50
2022-12-16T22:22:30.723Z,42.47
2022-12-16T22:25:16.612Z,38.13
2022-12-16T22:28:02.854Z,44.63
2022-12-16T22:30:50.706Z,37.97
2022-12-16T22:33:38.894Z,55.93
2022-12-16T22:36:28.094Z,37.50
2022-12-16T22:39:15.092Z,38.70
2022-12-16T22:42:01.832Z,47.27
2022-12-16T22:44:48.118Z,38.47
2022-12-16T22:47:35.794Z,47.50
2022-12-16T22:50:22.416Z,45.97
2022-12-16T22:53:09.589Z,30.07
2022-12-16T22:56:01.657Z,38.80
2022-12-16T22:58:48.260Z,41.33
2022-12-16T23:01:34.898Z,35.27
2022-12-16T23:04:24.005Z,42.07
2022-12-16T23:07:11.057Z,39.07
2022-12-16T23:09:58.190Z,32.03
2022-12-16T23:12:51.553Z,41.07
2022-12-16T23:15:39.384Z,41.70
2022-12-16T23:18:36.836Z,45.13
2022-12-16T23:21:34.824Z,35.07
2022-12-16T23:24:21.588Z,38.43
2022-12-16T23:27:08.236Z,31.83
2022-12-16T23:29:59.312Z,38.23
2022-12-16T23:32:47.938Z,41.07
2022-12-16T23:35:37.320Z,39.17
2022-12-16T23:38:26.093Z,34.83
2022-12-16T23:41:20.345Z,31.67
2022-12-16T23:44:07.435Z,33.37
2022-12-16T23:46:53.929Z,36.57
2022-12-16T23:49:40.322Z,35.00
2022-12-16T23:52:27.121Z,48.17
2022-12-16T23:55:15.402Z,37.23
2022-12-16T23:58:09.110Z,37.80
